Time;durP1;ratioP1;P1;durP2;ratioP2;P2;SDS_P1;SDS_P2;PMS_P1;PMS_P2;Temp;Humidity;BMP_temperature;BMP_pressure;BME280_temperature;BME280_humidity;BME280_pressure;Samples;Min_cycle;Max_cycle;Signal;HPM_P1;HPM_P2
2022/11/27 00:01:31;;;;;;;22.43;20.00;;;;;;;2.78;69.39;95847.22;5008504;28;20191;-65
2022/11/27 00:03:57;;;;;;;25.90;22.63;;;;;;;2.79;69.43;95851.50;5012239;28;20282;-65
2022/11/27 00:06:25;;;;;;;26.53;22.13;;;;;;;2.78;69.61;95853.28;5017102;28;20278;-66
2022/11/27 00:08:50;;;;;;;27.07;21.60;;;;;;;2.69;69.45;95856.34;5007507;28;20273;-64
2022/11/27 00:11:19;;;;;;;25.03;20.63;;;;;;;2.56;69.76;95861.34;5008412;28;20302;-66
2022/11/27 00:13:45;;;;;;;26.67;22.30;;;;;;;2.54;70.24;95862.34;5007663;28;20609;-66
2022/11/27 00:16:12;;;;;;;24.20;21.00;;;;;;;2.63;69.84;95854.09;5006859;28;20194;-66
2022/11/27 00:18:38;;;;;;;25.53;20.70;;;;;;;2.62;69.68;95849.84;5009404;28;20199;-66
2022/11/27 00:21:15;;;;;;;28.10;21.00;;;;;;;2.72;69.64;95848.38;5011834;28;20202;-66
2022/11/27 00:23:41;;;;;;;24.67;21.00;;;;;;;2.87;69.21;95857.13;5003902;28;20283;-66
2022/11/27 00:26:07;;;;;;;23.40;20.53;;;;;;;3.10;68.76;95861.03;5009237;28;20302;-65
2022/11/27 00:28:34;;;;;;;24.90;20.83;;;;;;;3.13;68.18;95857.41;5006475;28;20202;-65
2022/11/27 00:31:02;;;;;;;25.80;21.63;;;;;;;3.07;68.84;95859.47;5000878;28;20201;-65
2022/11/27 00:33:28;;;;;;;26.13;21.23;;;;;;;2.99;68.87;95869.41;5012770;28;20195;-69
2022/11/27 00:35:53;;;;;;;23.00;20.43;;;;;;;2.87;69.04;95857.13;5004554;28;20233;-66
2022/11/27 00:38:19;;;;;;;24.30;20.90;;;;;;;2.90;68.98;95864.72;4998263;28;20195;-65
2022/11/27 00:40:45;;;;;;;25.13;21.77;;;;;;;3.01;68.67;95864.97;5005222;28;20213;-67
2022/11/27 00:43:11;;;;;;;24.43;21.27;;;;;;;3.08;68.57;95863.72;5010082;28;20194;-68
2022/11/27 00:45:36;;;;;;;26.33;21.23;;;;;;;3.09;68.17;95875.78;5004566;28;20229;-67
2022/11/27 00:48:02;;;;;;;23.40;20.47;;;;;;;3.03;68.46;95870.94;5002720;28;20639;-66
2022/11/27 00:50:30;;;;;;;25.40;21.87;;;;;;;3.13;67.95;95871.28;4999448;28;20408;-66
2022/11/27 00:52:58;;;;;;;26.30;21.37;;;;;;;3.05;67.92;95871.69;5000466;28;20199;-65
2022/11/27 00:55:25;;;;;;;27.83;22.10;;;;;;;2.90;68.52;95869.09;5003831;28;20265;-66
2022/11/27 00:57:50;;;;;;;24.17;21.57;;;;;;;2.66;69.22;95866.91;5002807;28;20198;-65
2022/11/27 01:00:16;;;;;;;24.23;20.83;;;;;;;2.64;69.53;95873.94;4999670;28;20201;-65
2022/11/27 01:02:42;;;;;;;25.50;21.83;;;;;;;2.69;69.34;95865.91;4999440;28;20207;-65
2022/11/27 01:05:08;;;;;;;27.17;22.00;;;;;;;2.73;69.06;95868.25;4998065;28;20326;-64
2022/11/27 01:07:33;;;;;;;28.07;23.37;;;;;;;2.67;68.96;95867.75;4999117;28;20216;-67
2022/11/27 01:09:59;;;;;;;31.53;26.37;;;;;;;2.75;68.81;95870.75;4994078;28;20217;-66
2022/11/27 01:12:24;;;;;;;28.83;25.17;;;;;;;2.77;68.51;95868.94;5001890;28;20195;-66
2022/11/27 01:14:49;;;;;;;31.97;26.73;;;;;;;2.62;68.56;95861.06;4996479;28;20196;-66
2022/11/27 01:17:15;;;;;;;31.13;27.07;;;;;;;2.59;68.75;95858.63;4995017;28;20251;-68
2022/11/27 01:19:40;;;;;;;34.93;27.97;;;;;;;2.58;68.41;95856.94;4997196;28;20201;-65
2022/11/27 01:22:06;;;;;;;32.17;26.03;;;;;;;2.40;69.32;95850.97;5001932;28;20198;-66
2022/11/27 01:24:31;;;;;;;34.50;27.53;;;;;;;2.23;70.14;95851.03;4999819;28;20191;-66
2022/11/27 01:26:57;;;;;;;34.27;28.63;;;;;;;2.24;69.95;95846.66;4996713;28;20234;-66
2022/11/27 01:29:22;;;;;;;34.87;27.27;;;;;;;2.28;69.77;95840.41;5001198;28;20636;-66
2022/11/27 01:31:47;;;;;;;33.27;26.73;;;;;;;2.35;69.81;95842.59;4998871;28;20586;-66
2022/11/27 01:34:16;;;;;;;31.17;26.23;;;;;;;2.49;69.69;95838.44;4999234;28;20197;-66
2022/11/27 01:36:42;;;;;;;34.13;27.60;;;;;;;2.53;69.39;95847.72;5002404;28;20223;-67
2022/11/27 01:39:14;;;;;;;34.87;27.90;;;;;;;2.32;69.88;95847.94;4996180;28;20191;-67
2022/11/27 01:41:39;;;;;;;36.70;28.23;;;;;;;2.20;70.57;95841.66;4998352;28;20221;-66
2022/11/27 01:44:23;;;;;;;30.13;26.20;;;;;;;2.31;70.25;95845.44;4994459;28;20231;-66
2022/11/27 01:46:59;;;;;;;35.10;27.10;;;;;;;2.23;70.63;95838.06;5002264;28;20211;-66
2022/11/27 01:49:27;;;;;;;30.27;26.13;;;;;;;2.31;70.77;95835.06;5002953;28;20226;-67
2022/11/27 01:52:14;;;;;;;32.47;26.00;;;;;;;2.49;70.47;95834.06;5003778;28;20218;-66
2022/11/27 01:54:45;;;;;;;30.23;25.43;;;;;;;2.60;70.09;95834.31;5000284;28;20195;-66
2022/11/27 01:57:19;;;;;;;30.63;25.00;;;;;;;2.71;69.76;95832.91;5002417;28;20222;-66
2022/11/27 01:59:46;;;;;;;31.40;27.23;;;;;;;2.67;69.73;95823.59;5002837;28;20313;-68
2022/11/27 02:02:12;;;;;;;33.97;27.67;;;;;;;2.70;69.50;95829.47;5007941;28;20203;-66
2022/11/27 02:04:38;;;;;;;31.20;26.57;;;;;;;2.64;69.38;95833.22;5002960;28;20195;-67
2022/11/27 02:07:03;;;;;;;31.30;26.90;;;;;;;2.83;68.79;95832.22;5006052;28;20207;-66
2022/11/27 02:09:30;;;;;;;31.27;27.77;;;;;;;2.32;70.07;95834.13;5006676;28;20197;-66
2022/11/27 02:11:55;;;;;;;31.40;27.27;;;;;;;2.30;71.03;95838.56;5007548;28;20198;-67
2022/11/27 02:14:27;;;;;;;32.03;26.03;;;;;;;2.52;70.06;95836.50;5006277;28;20748;-66
2022/11/27 02:17:13;;;;;;;31.07;25.83;;;;;;;2.35;70.91;95839.16;5009396;28;20206;-67
2022/11/27 02:20:11;;;;;;;29.50;25.43;;;;;;;2.41;70.68;95844.03;5007171;28;20198;-67
2022/11/27 02:22:55;;;;;;;27.40;24.30;;;;;;;2.58;70.25;95841.34;4926896;29;20247;-67
2022/11/27 02:25:26;;;;;;;29.97;25.93;;;;;;;2.67;70.01;95842.59;4928420;29;20197;-67
2022/11/27 02:28:11;;;;;;;29.47;24.83;;;;;;;2.67;69.88;95834.81;4928980;29;20270;-64
2022/11/27 02:30:42;;;;;;;29.10;25.47;;;;;;;2.63;69.76;95838.50;4916607;29;20197;-65
2022/11/27 02:33:13;;;;;;;30.97;26.73;;;;;;;2.74;69.02;95838.75;4918538;29;20206;-65
2022/11/27 02:35:47;;;;;;;29.77;25.67;;;;;;;2.52;69.88;95846.88;4935236;29;20339;-66
2022/11/27 02:38:31;;;;;;;31.83;26.57;;;;;;;2.46;70.37;95846.34;4946000;29;20195;-65
2022/11/27 02:41:24;;;;;;;30.93;24.70;;;;;;;2.56;70.77;95856.16;4943273;29;20200;-65
2022/11/27 02:43:51;;;;;;;30.90;25.67;;;;;;;2.69;70.34;95847.72;4914678;29;20206;-66
2022/11/27 02:46:19;;;;;;;35.87;29.97;;;;;;;2.70;69.55;95846.78;4912080;29;20222;-66
2022/11/27 02:48:50;;;;;;;37.40;31.63;;;;;;;2.71;69.51;95848.50;4913951;29;20205;-65
2022/11/27 02:51:22;;;;;;;38.67;32.23;;;;;;;2.62;69.46;95840.28;4909876;29;20290;-66
2022/11/27 02:53:55;;;;;;;39.03;31.13;;;;;;;2.72;68.84;95853.59;4916778;29;20288;-66
2022/11/27 02:56:25;;;;;;;36.07;31.67;;;;;;;2.67;68.92;95842.59;4916053;29;20264;-65
2022/11/27 02:58:54;;;;;;;36.43;29.97;;;;;;;2.60;69.48;95844.72;4945613;28;20205;-65
2022/11/27 03:01:22;;;;;;;36.23;30.50;;;;;;;2.61;69.30;95845.53;4963002;28;20204;-65
2022/11/27 03:03:54;;;;;;;36.30;30.40;;;;;;;2.65;69.29;95840.09;4947246;28;20320;-65
2022/11/27 03:06:28;;;;;;;35.67;30.33;;;;;;;2.88;68.73;95845.78;4949357;28;20250;-66
2022/11/27 03:09:02;;;;;;;33.33;27.83;;;;;;;2.67;69.50;95850.41;4964264;28;20306;-66
2022/11/27 03:11:29;;;;;;;32.07;27.13;;;;;;;2.52;70.00;95857.28;4952763;28;20219;-66
2022/11/27 03:14:00;;;;;;;31.40;26.40;;;;;;;2.64;69.87;95859.19;4962166;28;20231;-66
2022/11/27 03:16:38;;;;;;;29.13;25.53;;;;;;;2.74;70.00;95859.53;4957701;28;20240;-67
2022/11/27 03:19:23;;;;;;;31.27;26.53;;;;;;;2.69;70.13;95856.34;4951066;28;20222;-66
2022/11/27 03:21:55;;;;;;;32.90;27.03;;;;;;;2.60;70.78;95856.88;4999952;28;20302;-65
2022/11/27 03:24:21;;;;;;;29.37;26.20;;;;;;;2.75;70.43;95849.97;5005302;28;20207;-65
2022/11/27 03:26:47;;;;;;;33.77;28.00;;;;;;;2.76;69.98;95856.88;5001134;28;20207;-65
2022/11/27 03:29:22;;;;;;;30.70;26.50;;;;;;;2.69;70.37;95860.72;5008215;28;20226;-64
2022/11/27 03:31:48;;;;;;;31.30;27.03;;;;;;;2.74;70.25;95853.50;5004786;28;20195;-65
2022/11/27 03:34:15;;;;;;;30.27;26.70;;;;;;;2.77;70.20;95858.53;5005378;28;20187;-64
2022/11/27 03:36:40;;;;;;;33.77;28.00;;;;;;;2.78;69.92;95850.66;5007129;28;20231;-65
2022/11/27 03:39:06;;;;;;;31.50;26.73;;;;;;;2.78;70.27;95852.41;5005192;28;20191;-65
2022/11/27 03:42:08;;;;;;;33.97;26.53;;;;;;;2.62;71.07;95849.84;4999641;28;20254;-65
2022/11/27 03:44:56;;;;;;;32.73;26.40;;;;;;;2.81;70.24;95860.06;5004980;28;20195;-64
2022/11/27 03:47:52;;;;;;;32.67;26.93;;;;;;;2.76;70.40;95854.28;5016563;28;20301;-65
2022/11/27 03:50:45;;;;;;;30.70;25.43;;;;;;;2.67;70.46;95855.59;5002447;28;20188;-66
2022/11/27 03:53:22;;;;;;;31.03;26.10;;;;;;;2.78;70.72;95842.00;5006053;28;20237;-66
2022/11/27 03:56:13;;;;;;;32.90;26.77;;;;;;;2.77;70.58;95846.38;5002858;28;20245;-66
2022/11/27 03:58:51;;;;;;;32.80;26.60;;;;;;;2.76;70.46;95846.47;5005564;28;20187;-66
2022/11/27 04:01:20;;;;;;;33.53;27.63;;;;;;;2.77;70.92;95855.94;4997338;28;20279;-65
2022/11/27 04:03:46;;;;;;;31.17;26.10;;;;;;;2.69;70.90;95845.13;5000423;28;20187;-66
2022/11/27 04:06:11;;;;;;;33.50;27.47;;;;;;;2.75;70.86;95844.78;5006815;28;20217;-66
2022/11/27 04:08:37;;;;;;;33.23;26.67;;;;;;;2.76;71.01;95843.88;5005194;28;20195;-66
2022/11/27 04:11:03;;;;;;;33.30;27.57;;;;;;;2.54;71.54;95844.19;5003737;28;20246;-66
2022/11/27 04:13:29;;;;;;;33.27;27.53;;;;;;;2.59;71.28;95835.25;4982770;28;20199;-66
2022/11/27 04:15:54;;;;;;;32.93;27.57;;;;;;;2.64;71.18;95833.22;4999974;28;20267;-66
2022/11/27 04:18:19;;;;;;;32.80;27.23;;;;;;;2.69;71.28;95832.16;4999314;28;20206;-66
2022/11/27 04:20:45;;;;;;;34.77;27.83;;;;;;;2.61;71.23;95823.00;5006589;28;20215;-66
2022/11/27 04:23:10;;;;;;;34.00;27.60;;;;;;;2.88;70.57;95832.81;4998694;28;20257;-66
2022/11/27 04:25:36;;;;;;;32.37;26.30;;;;;;;2.82;70.15;95839.19;4997404;28;20215;-67
2022/11/27 04:28:01;;;;;;;31.73;26.47;;;;;;;2.74;70.57;95843.13;5003444;28;20205;-66
2022/11/27 04:30:27;;;;;;;32.53;25.50;;;;;;;2.59;71.12;95837.84;5000067;28;20199;-65
2022/11/27 04:32:52;;;;;;;32.67;25.53;;;;;;;2.60;71.44;95841.28;5005225;28;20187;-64
2022/11/27 04:35:17;;;;;;;33.20;26.33;;;;;;;2.59;71.01;95834.41;5016913;28;20192;-63
2022/11/27 04:37:43;;;;;;;31.20;24.90;;;;;;;2.64;70.84;95832.38;5026626;28;20194;-64
2022/11/27 04:40:09;;;;;;;33.93;24.57;;;;;;;2.65;70.72;95845.31;5025395;28;20229;-63
2022/11/27 04:42:34;;;;;;;32.73;26.43;;;;;;;2.63;70.94;95846.31;5030448;28;20305;-64
2022/11/27 04:45:00;;;;;;;32.73;25.07;;;;;;;2.71;71.10;95858.88;5024073;28;20190;-66
2022/11/27 04:47:26;;;;;;;31.03;25.07;;;;;;;2.67;70.67;95858.19;5027165;28;20228;-65
2022/11/27 04:49:51;;;;;;;33.07;25.43;;;;;;;2.59;70.92;95850.84;5024709;28;20217;-65
2022/11/27 04:52:17;;;;;;;30.40;24.93;;;;;;;2.58;71.28;95854.34;5028694;28;20281;-65
2022/11/27 04:54:42;;;;;;;32.57;25.57;;;;;;;2.59;70.89;95850.84;5032610;28;20188;-65
2022/11/27 04:57:07;;;;;;;30.83;25.37;;;;;;;2.63;71.03;95865.31;5024628;28;20217;-65
2022/11/27 04:59:33;;;;;;;31.90;25.40;;;;;;;2.65;70.85;95867.84;5029437;28;20197;-66
2022/11/27 05:01:58;;;;;;;31.70;23.80;;;;;;;2.56;70.99;95861.34;5012618;28;20250;-65
2022/11/27 05:04:24;;;;;;;30.17;25.90;;;;;;;2.64;70.58;95845.38;5026436;28;20201;-65
2022/11/27 05:06:49;;;;;;;31.33;24.53;;;;;;;2.81;70.21;95854.88;5027846;28;20233;-66
2022/11/27 05:09:18;;;;;;;30.67;24.23;;;;;;;2.58;70.60;95849.13;5025677;28;20198;-65
2022/11/27 05:11:43;;;;;;;30.83;25.33;;;;;;;2.46;71.03;95848.97;5041455;28;20526;-65
2022/11/27 05:14:19;;;;;;;30.60;24.30;;;;;;;2.43;71.38;95849.97;5029828;28;20284;-65
2022/11/27 05:16:50;;;;;;;28.60;24.23;;;;;;;2.55;70.78;95854.50;5027621;28;20213;-65
2022/11/27 05:19:18;;;;;;;29.03;24.50;;;;;;;2.49;70.92;95852.25;5027773;28;20190;-64
2022/11/27 05:21:44;;;;;;;30.70;24.20;;;;;;;2.43;71.27;95852.56;5026885;28;20268;-65
2022/11/27 05:24:10;;;;;;;28.37;24.37;;;;;;;2.43;71.47;95855.16;5024374;28;20232;-65
2022/11/27 05:26:37;;;;;;;30.43;24.33;;;;;;;2.52;70.97;95865.06;5028068;28;20232;-65
2022/11/27 05:29:03;;;;;;;28.67;24.03;;;;;;;2.47;71.25;95866.22;5028877;28;20208;-65
2022/11/27 05:31:29;;;;;;;28.00;24.90;;;;;;;2.50;71.15;95866.88;5018080;28;20203;-65
2022/11/27 05:33:54;;;;;;;29.47;24.73;;;;;;;2.63;70.59;95870.50;5030440;28;20198;-64
2022/11/27 05:36:20;;;;;;;28.93;24.90;;;;;;;2.56;70.91;95871.75;5013021;28;20223;-66
2022/11/27 05:38:45;;;;;;;30.30;24.83;;;;;;;2.30;71.86;95870.56;5000284;28;20187;-65
2022/11/27 05:41:11;;;;;;;34.23;26.60;;;;;;;2.49;71.60;95869.59;4995631;28;20186;-66
2022/11/27 05:43:36;;;;;;;33.97;26.50;;;;;;;2.43;71.36;95860.34;4998497;28;20210;-66
2022/11/27 05:46:07;;;;;;;29.13;25.23;;;;;;;2.47;71.71;95874.00;4994757;28;20207;-67
2022/11/27 05:48:34;;;;;;;30.47;26.40;;;;;;;2.33;71.67;95869.56;5001277;28;20183;-66
2022/11/27 05:51:00;;;;;;;33.27;26.67;;;;;;;2.42;72.11;95874.25;5001247;28;20278;-66
2022/11/27 05:53:26;;;;;;;31.93;26.20;;;;;;;2.57;71.40;95873.44;4999140;28;20186;-66
2022/11/27 05:55:51;;;;;;;32.20;26.07;;;;;;;2.50;71.42;95864.28;5001547;28;20241;-66
2022/11/27 05:58:17;;;;;;;32.67;25.80;;;;;;;2.58;71.64;95875.09;5001206;28;20294;-66
2022/11/27 06:00:43;;;;;;;34.33;28.07;;;;;;;2.23;72.52;95870.94;4998694;28;20211;-65
2022/11/27 06:03:09;;;;;;;33.20;27.60;;;;;;;2.19;72.78;95863.34;5014017;28;20234;-66
2022/11/27 06:05:38;;;;;;;33.77;26.30;;;;;;;2.33;72.28;95882.53;5004801;28;20234;-65
2022/11/27 06:08:04;;;;;;;30.50;26.80;;;;;;;2.42;72.37;95887.22;4999890;28;20195;-66
2022/11/27 06:10:30;;;;;;;31.80;27.20;;;;;;;2.59;72.03;95886.31;5004841;28;20211;-67
2022/11/27 06:12:55;;;;;;;31.70;26.90;;;;;;;2.47;72.16;95882.63;5005299;28;20187;-66
2022/11/27 06:15:21;;;;;;;32.93;27.07;;;;;;;2.64;71.54;95881.72;5002788;28;20187;-67
2022/11/27 06:17:48;;;;;;;33.20;27.37;;;;;;;2.71;71.13;95879.66;5000708;28;20238;-66
2022/11/27 06:20:14;;;;;;;32.07;26.57;;;;;;;2.77;71.10;95885.34;5019874;28;20214;-65
2022/11/27 06:22:39;;;;;;;30.57;25.83;;;;;;;2.78;70.80;95891.38;5003231;28;20210;-66
2022/11/27 06:25:05;;;;;;;29.90;26.03;;;;;;;2.80;70.54;95892.97;4998311;28;20250;-67
2022/11/27 06:27:32;;;;;;;34.40;27.90;;;;;;;2.78;70.32;95888.78;5006026;28;20202;-65
2022/11/27 06:29:58;;;;;;;36.10;28.03;;;;;;;2.74;70.24;95895.91;5001916;28;20182;-65
2022/11/27 06:32:23;;;;;;;32.50;26.40;;;;;;;2.87;69.49;95886.53;5001627;28;20186;-65
2022/11/27 06:34:48;;;;;;;35.50;27.23;;;;;;;2.78;70.03;95880.97;5003259;28;20199;-67
2022/11/27 06:37:14;;;;;;;31.47;27.37;;;;;;;2.82;69.77;95882.50;5002033;28;20300;-67
2022/11/27 06:39:39;;;;;;;31.70;27.90;;;;;;;2.82;69.39;95890.28;4999768;28;20693;-64
2022/11/27 06:42:05;;;;;;;36.67;28.77;;;;;;;2.86;69.41;95881.41;5006078;28;20199;-65
2022/11/27 06:44:30;;;;;;;35.87;28.23;;;;;;;2.96;68.95;95890.38;5000854;28;20192;-65
2022/11/27 06:46:55;;;;;;;35.87;28.00;;;;;;;3.09;68.76;95891.38;5007338;28;20237;-65
2022/11/27 06:49:21;;;;;;;31.90;26.43;;;;;;;2.99;68.92;95895.38;5007202;28;20184;-66
2022/11/27 06:51:48;;;;;;;32.53;27.27;;;;;;;3.06;68.54;95895.91;4991185;28;20191;-66
2022/11/27 06:54:13;;;;;;;33.57;26.03;;;;;;;3.07;68.37;95890.63;5007515;28;20191;-67
2022/11/27 06:56:38;;;;;;;35.27;27.33;;;;;;;3.15;68.25;95889.34;5003145;28;20190;-65
2022/11/27 06:59:04;;;;;;;34.43;28.40;;;;;;;3.24;67.94;95886.25;5003262;28;20190;-65
2022/11/27 07:01:30;;;;;;;31.93;27.13;;;;;;;3.28;68.06;95892.94;5006163;28;20182;-65
2022/11/27 07:03:56;;;;;;;31.67;27.10;;;;;;;3.22;67.91;95896.72;4999677;28;20176;-69
2022/11/27 07:06:24;;;;;;;31.67;27.00;;;;;;;3.23;68.09;95892.38;5007234;28;20261;-68
2022/11/27 07:08:51;;;;;;;36.67;29.63;;;;;;;3.14;68.49;95885.09;5008931;28;20198;-68
2022/11/27 07:11:22;;;;;;;39.07;30.33;;;;;;;3.22;68.74;95886.34;5005623;28;20274;-65
2022/11/27 07:13:49;;;;;;;33.57;27.43;;;;;;;3.34;68.12;95884.78;5005925;28;20223;-64
2022/11/27 07:16:15;;;;;;;37.73;30.30;;;;;;;3.45;67.97;95882.44;5001887;28;20208;-65
2022/11/27 07:18:44;;;;;;;37.57;30.17;;;;;;;3.45;67.24;95885.06;5018502;28;20270;-63
2022/11/27 07:21:10;;;;;;;34.50;28.67;;;;;;;3.52;67.80;95878.56;5003989;28;20199;-64
2022/11/27 07:23:36;;;;;;;34.60;29.73;;;;;;;3.49;68.00;95877.91;4999224;28;20203;-64
2022/11/27 07:26:10;;;;;;;35.17;29.43;;;;;;;3.37;68.62;95884.66;5003020;28;20246;-65
2022/11/27 07:28:36;;;;;;;37.20;30.57;;;;;;;3.55;68.24;95877.53;5000255;28;20184;-66
2022/11/27 07:31:02;;;;;;;40.73;31.67;;;;;;;3.51;68.02;95881.25;5002692;28;20188;-66
2022/11/27 07:33:27;;;;;;;38.20;30.90;;;;;;;3.64;67.51;95882.22;5004645;28;20222;-65
2022/11/27 07:35:58;;;;;;;39.47;32.57;;;;;;;3.59;67.66;95879.06;5009434;28;20226;-64
2022/11/27 07:38:23;;;;;;;36.00;30.83;;;;;;;3.57;67.59;95880.91;5020845;28;20194;-67
2022/11/27 07:40:49;;;;;;;40.33;32.93;;;;;;;3.74;67.59;95872.97;5029816;28;20190;-65
2022/11/27 07:43:14;;;;;;;37.80;31.20;;;;;;;3.79;66.93;95875.28;5028919;28;20213;-65
2022/11/27 07:45:40;;;;;;;37.20;30.13;;;;;;;3.67;67.14;95876.03;5036688;28;20211;-64
2022/11/27 07:48:05;;;;;;;36.07;30.80;;;;;;;3.89;66.69;95873.84;5022552;28;20565;-66
2022/11/27 07:50:30;;;;;;;37.23;30.10;;;;;;;3.87;66.45;95874.84;5023346;28;20206;-69
2022/11/27 07:52:56;;;;;;;37.07;30.47;;;;;;;3.84;66.55;95877.63;5026773;28;20202;-68
2022/11/27 07:55:21;;;;;;;34.20;29.33;;;;;;;3.81;66.56;95870.84;5019708;28;20191;-68
2022/11/27 07:57:47;;;;;;;36.77;30.03;;;;;;;3.86;66.65;95879.22;5029219;28;20186;-67
2022/11/27 08:00:13;;;;;;;39.13;30.53;;;;;;;4.00;66.08;95878.41;5021752;28;20213;-67
2022/11/27 08:02:38;;;;;;;36.17;29.47;;;;;;;4.03;66.15;95873.00;5029181;28;20186;-67
2022/11/27 08:05:04;;;;;;;35.87;29.23;;;;;;;4.12;65.90;95871.66;5025694;28;20258;-67
2022/11/27 08:07:29;;;;;;;35.27;30.10;;;;;;;4.10;65.64;95873.50;5019476;28;20221;-66
2022/11/27 08:09:59;;;;;;;35.03;28.50;;;;;;;3.74;66.21;95869.50;5021444;28;20201;-66
2022/11/27 08:12:25;;;;;;;34.80;28.87;;;;;;;3.77;66.40;95877.16;5012122;28;20187;-66
2022/11/27 08:14:51;;;;;;;36.37;30.03;;;;;;;4.04;66.09;95871.28;5021020;28;20205;-65
2022/11/27 08:17:17;;;;;;;35.13;29.80;;;;;;;4.31;64.93;95873.97;5033181;28;20205;-67
2022/11/27 08:19:42;;;;;;;34.37;28.70;;;;;;;4.35;64.45;95868.47;5022219;28;20361;-69
2022/11/27 08:22:18;;;;;;;37.17;31.23;;;;;;;4.47;64.46;95869.50;5024145;28;20234;-67
2022/11/27 08:24:44;;;;;;;37.43;29.67;;;;;;;4.53;63.81;95876.13;5026441;28;20327;-67
2022/11/27 08:27:10;;;;;;;38.80;30.57;;;;;;;4.51;63.97;95881.41;5027804;28;20210;-67
2022/11/27 08:29:39;;;;;;;34.40;29.07;;;;;;;4.52;63.77;95874.44;5019880;28;20206;-68
2022/11/27 08:32:05;;;;;;;36.00;30.90;;;;;;;4.49;64.29;95870.25;5027066;28;20209;-67
2022/11/27 08:34:30;;;;;;;37.53;30.33;;;;;;;4.48;63.87;95865.13;5026423;28;20194;-68
2022/11/27 08:36:56;;;;;;;34.87;28.67;;;;;;;4.55;63.86;95874.25;5005811;28;20224;-68
2022/11/27 08:39:21;;;;;;;40.27;31.77;;;;;;;4.58;63.54;95871.47;5003133;28;20186;-67
2022/11/27 08:41:46;;;;;;;36.27;29.70;;;;;;;4.55;63.97;95856.88;4998839;28;20186;-68
2022/11/27 08:44:12;;;;;;;37.60;29.97;;;;;;;4.46;63.99;95862.63;4999910;28;20194;-68
2022/11/27 08:46:37;;;;;;;40.20;31.10;;;;;;;4.48;64.37;95858.16;4997512;28;20207;-67
2022/11/27 08:49:03;;;;;;;37.93;30.30;;;;;;;4.47;64.11;95860.88;5003021;28;20222;-67
2022/11/27 08:51:28;;;;;;;37.03;29.70;;;;;;;4.69;63.31;95856.00;4999099;28;20249;-67
2022/11/27 08:53:54;;;;;;;36.00;28.57;;;;;;;4.69;63.47;95860.38;5003698;28;20234;-68
2022/11/27 08:56:22;;;;;;;38.10;30.17;;;;;;;4.68;63.54;95861.28;4999330;28;20188;-67
2022/11/27 08:58:48;;;;;;;40.23;30.17;;;;;;;4.70;63.48;95862.03;4999922;28;20194;-66
2022/11/27 09:01:21;;;;;;;37.90;29.70;;;;;;;4.93;62.72;95855.41;5011735;28;20188;-67
2022/11/27 09:03:47;;;;;;;36.83;29.53;;;;;;;4.84;62.94;95846.41;5015732;28;20195;-64
2022/11/27 09:06:18;;;;;;;35.17;29.63;;;;;;;4.98;62.91;95850.75;4999790;28;20279;-67
2022/11/27 09:08:44;;;;;;;38.47;29.67;;;;;;;5.07;62.44;95853.56;4994628;28;20191;-67
2022/11/27 09:11:11;;;;;;;34.27;28.93;;;;;;;5.00;62.41;95854.94;5000337;28;20223;-68
2022/11/27 09:13:38;;;;;;;39.17;28.70;;;;;;;4.94;62.96;95844.03;5005818;28;20191;-67
2022/11/27 09:16:05;;;;;;;36.97;29.27;;;;;;;5.07;62.46;95845.75;4999448;28;20291;-68
2022/11/27 09:18:30;;;;;;;38.27;30.57;;;;;;;5.35;61.90;95851.00;5002138;28;20198;-68
2022/11/27 09:20:58;;;;;;;39.67;29.77;;;;;;;5.34;61.73;95855.34;4998683;28;20201;-68
2022/11/27 09:23:24;;;;;;;38.80;29.40;;;;;;;5.51;61.31;95841.22;5001703;28;20193;-68
2022/11/27 09:25:49;;;;;;;38.40;28.77;;;;;;;5.39;61.51;95834.19;5001626;28;20293;-69
2022/11/27 09:28:15;;;;;;;35.67;29.17;;;;;;;5.58;61.38;95828.59;5001640;28;20211;-69
2022/11/27 09:30:40;;;;;;;37.47;30.00;;;;;;;5.58;61.31;95824.22;4996768;28;20549;-68
2022/11/27 09:33:06;;;;;;;34.57;28.63;;;;;;;5.55;61.23;95827.03;5001971;28;20537;-66
2022/11/27 09:35:31;;;;;;;35.30;28.03;;;;;;;5.79;60.66;95810.69;5005109;28;20263;-66
2022/11/27 09:37:57;;;;;;;38.40;29.20;;;;;;;5.86;60.28;95811.97;5034424;28;20186;-68
2022/11/27 09:40:24;;;;;;;40.23;30.20;;;;;;;5.95;60.05;95817.41;5037546;28;20240;-68
2022/11/27 09:42:58;;;;;;;33.40;27.73;;;;;;;5.87;60.28;95821.44;5029692;28;20186;-68
2022/11/27 09:45:28;;;;;;;33.30;27.77;;;;;;;6.20;59.56;95813.13;5029943;28;20308;-68
2022/11/27 09:47:53;;;;;;;38.50;29.20;;;;;;;6.34;58.67;95809.56;5021726;28;20190;-70
2022/11/27 09:50:29;;;;;;;35.87;28.83;;;;;;;6.50;58.83;95802.34;5025432;28;20186;-70
2022/11/27 09:53:19;;;;;;;34.93;29.40;;;;;;;6.63;58.42;95808.38;5023991;28;20192;-73
2022/11/27 09:55:48;;;;;;;35.83;27.60;;;;;;;6.56;58.28;95801.91;5027025;28;20200;-70
2022/11/27 09:58:19;;;;;;;34.10;28.33;;;;;;;6.69;57.93;95801.03;5013649;28;20190;-67
2022/11/27 10:00:45;;;;;;;36.47;30.23;;;;;;;6.71;58.02;95794.75;5020557;28;20269;-70
2022/11/27 10:03:19;;;;;;;35.13;28.50;;;;;;;6.84;57.41;95785.09;5026539;28;20201;-71
2022/11/27 10:06:09;;;;;;;34.90;28.40;;;;;;;6.66;58.16;95785.59;5021181;28;20212;-72
2022/11/27 10:08:44;;;;;;;38.33;30.00;;;;;;;6.76;57.79;95781.34;5016655;28;20209;-67
2022/11/27 10:11:19;;;;;;;30.07;25.67;;;;;;;6.98;56.81;95780.66;5024887;28;20467;-73
2022/11/27 10:14:17;;;;;;;33.60;26.83;;;;;;;6.65;57.24;95778.66;5027755;28;20216;-68
2022/11/27 10:16:55;;;;;;;36.03;28.50;;;;;;;6.92;56.79;95768.84;5027296;28;20238;-67
2022/11/27 10:19:28;;;;;;;35.23;28.37;;;;;;;6.95;56.80;95768.66;5036951;28;20196;-69
2022/11/27 10:22:15;;;;;;;34.00;29.47;;;;;;;6.88;56.51;95772.63;5038731;28;20210;-69
2022/11/27 10:24:50;;;;;;;32.13;27.10;;;;;;;6.75;57.02;95758.78;5026593;28;20193;-68
2022/11/27 10:27:23;;;;;;;29.63;24.80;;;;;;;7.00;56.38;95743.00;5025753;28;20219;-69
2022/11/27 10:29:53;;;;;;;34.37;27.77;;;;;;;7.11;55.96;95750.06;5027811;28;20250;-69
2022/11/27 10:32:23;;;;;;;30.53;25.17;;;;;;;7.28;55.50;95747.03;5028718;28;20193;-68
2022/11/27 10:34:52;;;;;;;29.40;25.43;;;;;;;7.42;55.15;95747.78;5040209;28;20659;-68
2022/11/27 10:37:38;;;;;;;30.70;25.83;;;;;;;7.53;54.55;95739.13;5021855;28;20231;-67
2022/11/27 10:40:20;;;;;;;30.93;26.87;;;;;;;7.31;55.16;95732.88;4997465;28;20214;-65
2022/11/27 10:42:54;;;;;;;33.37;26.43;;;;;;;7.29;55.59;95737.38;5009389;28;20182;-68
2022/11/27 10:45:22;;;;;;;33.00;26.67;;;;;;;7.43;55.08;95731.97;4997605;28;20187;-68
2022/11/27 10:47:48;;;;;;;33.87;27.40;;;;;;;7.32;55.48;95734.53;5006185;28;20245;-68
2022/11/27 10:50:15;;;;;;;29.57;26.37;;;;;;;7.25;55.35;95733.34;5003808;28;20222;-68
2022/11/27 10:53:03;;;;;;;29.97;25.47;;;;;;;7.21;55.35;95727.47;5005831;28;20214;-68
2022/11/27 10:55:32;;;;;;;29.33;24.03;;;;;;;7.28;54.83;95722.66;5017863;28;20288;-68
2022/11/27 10:58:09;;;;;;;26.93;22.47;;;;;;;7.46;54.21;95721.28;5000904;28;20201;-68
2022/11/27 11:00:35;;;;;;;25.73;21.20;;;;;;;7.42;53.94;95714.59;5015782;28;20256;-67
2022/11/27 11:03:03;;;;;;;22.47;19.20;;;;;;;7.42;53.88;95719.00;5007225;28;20207;-66
2022/11/27 11:05:29;;;;;;;24.27;20.30;;;;;;;7.26;53.60;95722.75;4999906;28;20226;-67
2022/11/27 11:07:55;;;;;;;24.80;21.37;;;;;;;7.26;54.19;95714.06;5003900;28;20187;-67
2022/11/27 11:10:30;;;;;;;28.67;22.13;;;;;;;7.05;55.01;95721.72;5006770;28;20191;-67
2022/11/27 11:13:26;;;;;;;32.73;23.30;;;;;;;6.99;55.83;95717.78;5007448;28;20186;-66
2022/11/27 11:16:03;;;;;;;28.27;22.40;;;;;;;7.04;55.59;95718.28;5005789;28;20241;-66
2022/11/27 11:18:52;;;;;;;26.50;22.17;;;;;;;7.05;55.15;95712.09;5004430;28;20190;-65
2022/11/27 11:21:39;;;;;;;23.97;18.77;;;;;;;6.96;54.53;95704.94;5005818;28;20191;-67
2022/11/27 11:24:27;;;;;;;22.33;19.47;;;;;;;7.07;54.15;95706.75;5002723;28;20195;-67
2022/11/27 11:26:57;;;;;;;22.23;18.43;;;;;;;7.04;54.05;95699.97;5022121;28;20199;-68
2022/11/27 11:29:36;;;;;;;21.87;18.63;;;;;;;7.13;53.85;95690.59;5017733;28;20194;-69
2022/11/27 11:32:20;;;;;;;24.10;20.13;;;;;;;7.00;54.71;95695.94;5008789;28;20597;-68
2022/11/27 11:34:58;;;;;;;23.23;19.20;;;;;;;7.09;54.31;95693.59;5019317;28;20226;-68